createdAt,value
2018-05-25T00:02:25.034Z,18.77
2018-05-25T00:04:57.928Z,18.65
2018-05-25T00:07:32.378Z,18.71
2018-05-25T00:10:05.393Z,18.75
2018-05-25T00:12:37.381Z,18.74
2018-05-25T00:15:09.004Z,18.70
2018-05-25T00:17:44.255Z,18.69
2018-05-25T00:20:16.199Z,18.62
2018-05-25T00:22:49.195Z,18.73
2018-05-25T00:25:22.106Z,18.70
2018-05-25T00:27:53.654Z,18.68
2018-05-25T00:30:25.485Z,18.71
2018-05-25T00:32:58.342Z,18.57
2018-05-25T00:35:31.542Z,18.70
2018-05-25T00:38:03.505Z,18.70
2018-05-25T00:40:36.334Z,18.66
2018-05-25T00:43:09.077Z,18.60
2018-05-25T00:45:39.001Z,18.57
2018-05-25T00:48:09.776Z,18.52
2018-05-25T00:50:42.732Z,18.54
2018-05-25T00:53:15.610Z,18.59
2018-05-25T00:55:47.084Z,18.54
2018-05-25T00:58:18.469Z,18.45
2018-05-25T01:00:52.825Z,18.45
2018-05-25T01:03:25.664Z,18.29
2018-05-25T01:05:58.595Z,18.31
2018-05-25T01:08:30.074Z,18.25
2018-05-25T01:11:01.470Z,18.28
2018-05-25T01:13:35.963Z,18.25
2018-05-25T01:16:07.333Z,18.18
2018-05-25T01:18:39.494Z,18.08
2018-05-25T01:21:13.847Z,18.06
2018-05-25T01:23:45.203Z,17.92
2018-05-25T01:26:18.253Z,18.00
2018-05-25T01:28:49.605Z,17.95
2018-05-25T01:31:21.090Z,17.87
2018-05-25T01:33:51.943Z,17.91
2018-05-25T01:36:23.863Z,17.91
2018-05-25T01:38:55.352Z,17.84
2018-05-25T01:41:26.724Z,17.73
2018-05-25T01:43:59.633Z,17.75
2018-05-25T01:46:32.710Z,17.71
2018-05-25T01:49:05.812Z,17.73
2018-05-25T01:51:37.392Z,17.65
2018-05-25T01:54:07.345Z,17.63
2018-05-25T01:56:38.787Z,17.59
2018-05-25T01:59:13.069Z,17.54
2018-05-25T02:01:44.534Z,17.54
2018-05-25T02:04:18.516Z,17.52
2018-05-25T02:06:52.187Z,17.54
2018-05-25T02:09:26.908Z,17.49
2018-05-25T02:11:59.727Z,17.49
2018-05-25T02:14:33.370Z,17.47
2018-05-25T02:17:06.154Z,17.43
2018-05-25T02:19:37.557Z,17.38
2018-05-25T02:22:09.010Z,17.40
2018-05-25T02:24:41.806Z,17.27
2018-05-25T02:27:13.311Z,17.31
2018-05-25T02:29:45.595Z,17.26
2018-05-25T02:32:20.044Z,17.18
2018-05-25T02:34:52.375Z,17.24
2018-05-25T02:37:25.451Z,17.30
2018-05-25T02:39:57.500Z,17.30
2018-05-25T02:42:27.234Z,17.30
2018-05-25T02:44:58.182Z,17.29
2018-05-25T02:47:31.055Z,17.33
2018-05-25T02:50:04.003Z,17.28
2018-05-25T02:52:38.869Z,17.27
2018-05-25T02:55:11.827Z,17.26
2018-05-25T02:57:44.827Z,17.24
2018-05-25T03:00:18.371Z,17.27
2018-05-25T03:02:50.726Z,17.22
2018-05-25T03:05:25.140Z,17.18
2018-05-25T03:07:55.525Z,17.24
2018-05-25T03:10:25.496Z,17.18
2018-05-25T03:12:56.964Z,17.25
2018-05-25T03:15:28.455Z,17.16
2018-05-25T03:18:00.766Z,17.16
2018-05-25T03:20:33.630Z,17.26
2018-05-25T03:23:05.936Z,17.26
2018-05-25T03:25:39.820Z,17.25
2018-05-25T03:28:11.196Z,17.35
2018-05-25T03:30:45.186Z,17.47
2018-05-25T03:33:18.154Z,17.48
2018-05-25T03:35:51.059Z,17.51
2018-05-25T03:38:22.502Z,17.53
2018-05-25T03:40:51.931Z,17.52
2018-05-25T03:43:26.465Z,17.47
2018-05-25T03:45:57.579Z,17.53
2018-05-25T03:48:28.827Z,17.53
2018-05-25T03:51:01.882Z,17.54
2018-05-25T03:53:36.379Z,17.54
2018-05-25T03:56:07.480Z,17.32
2018-05-25T03:59:15.456Z,17.43
2018-05-25T04:02:03.722Z,17.48
2018-05-25T04:04:38.333Z,17.39
2018-05-25T04:07:11.178Z,17.48
2018-05-25T04:09:42.529Z,17.57
2018-05-25T04:12:13.649Z,17.62
2018-05-25T04:14:46.615Z,17.70
2018-05-25T04:17:17.314Z,17.77
2018-05-25T04:19:50.391Z,17.78
2018-05-25T04:22:21.797Z,18.29
2018-05-25T04:24:53.345Z,18.58
2018-05-25T04:27:27.676Z,19.04
2018-05-25T04:30:00.516Z,19.38
2018-05-25T04:32:33.397Z,19.96
2018-05-25T04:35:04.804Z,20.26
2018-05-25T04:37:36.256Z,20.12
2018-05-25T04:40:09.180Z,20.91
2018-05-25T04:42:41.198Z,21.45
2018-05-25T04:45:14.038Z,21.80
2018-05-25T04:47:46.896Z,21.73
2018-05-25T04:50:18.472Z,21.95
2018-05-25T04:52:51.264Z,22.32
2018-05-25T04:55:23.229Z,22.48
2018-05-25T04:57:57.433Z,21.95
2018-05-25T05:00:30.295Z,22.83
2018-05-25T05:03:01.616Z,22.28
2018-05-25T05:05:33.562Z,22.87
2018-05-25T05:08:03.680Z,22.93
2018-05-25T05:10:36.939Z,22.93
2018-05-25T05:13:10.368Z,23.05
2018-05-25T05:15:41.104Z,24.08
2018-05-25T05:18:13.838Z,23.91
2018-05-25T05:20:46.123Z,23.30
2018-05-25T05:23:20.507Z,23.47
2018-05-25T05:25:53.345Z,22.68
2018-05-25T05:28:26.218Z,23.08
2018-05-25T05:30:58.963Z,23.65
2018-05-25T05:33:28.903Z,23.90
2018-05-25T05:36:01.739Z,24.24
2018-05-25T05:38:34.658Z,22.97
2018-05-25T05:41:07.363Z,22.67
2018-05-25T05:43:38.733Z,21.45
2018-05-25T05:46:09.856Z,23.03
2018-05-25T05:48:40.507Z,22.96
2018-05-25T05:51:13.695Z,24.24
2018-05-25T05:53:46.424Z,24.46
2018-05-25T05:56:19.183Z,24.22
2018-05-25T05:58:49.056Z,24.18
2018-05-25T06:01:21.421Z,23.80
2018-05-25T06:03:56.227Z,24.86
2018-05-25T06:06:29.065Z,24.44
2018-05-25T06:09:00.624Z,23.71
2018-05-25T06:11:33.511Z,25.49
2018-05-25T06:14:08.137Z,25.22
2018-05-25T06:16:40.515Z,25.27
2018-05-25T06:19:13.570Z,23.17
2018-05-25T06:21:47.913Z,23.98
2018-05-25T06:24:22.251Z,24.87
2018-05-25T06:26:56.033Z,25.08
2018-05-25T06:29:29.703Z,26.21
2018-05-25T06:32:02.740Z,26.02
2018-05-25T06:34:36.396Z,24.82
2018-05-25T06:37:11.843Z,27.01
2018-05-25T06:39:41.116Z,24.88
2018-05-25T06:42:13.942Z,25.67
2018-05-25T06:44:45.717Z,24.45
2018-05-25T06:47:20.361Z,23.71
2018-05-25T06:49:54.010Z,23.60
2018-05-25T06:52:27.086Z,23.96
2018-05-25T06:54:58.388Z,24.04
2018-05-25T06:57:30.179Z,24.10
2018-05-25T07:00:01.643Z,24.46
2018-05-25T07:02:34.560Z,24.89
2018-05-25T07:05:09.121Z,24.90
2018-05-25T07:07:41.403Z,24.44
2018-05-25T07:10:14.204Z,25.00
2018-05-25T07:12:47.327Z,25.43
2018-05-25T07:15:21.644Z,26.81
2018-05-25T07:17:53.228Z,26.41
2018-05-25T07:20:24.702Z,26.96
2018-05-25T07:22:59.246Z,27.11
2018-05-25T07:25:31.994Z,28.27
2018-05-25T07:28:03.412Z,29.36
2018-05-25T07:30:38.497Z,27.98
2018-05-25T07:33:11.264Z,30.05
2018-05-25T07:35:41.690Z,28.95
2018-05-25T07:38:13.531Z,29.22
2018-05-25T07:40:46.416Z,30.13
2018-05-25T07:43:18.576Z,29.10
2018-05-25T07:45:50.435Z,28.73
2018-05-25T07:48:20.419Z,28.31
2018-05-25T07:50:51.724Z,28.46
2018-05-25T07:53:24.115Z,27.97
2018-05-25T07:55:55.602Z,28.66
2018-05-25T07:58:29.981Z,28.60
2018-05-25T08:01:01.436Z,28.93
2018-05-25T08:03:34.187Z,28.20
2018-05-25T08:06:05.476Z,28.51
2018-05-25T08:08:36.717Z,28.96
2018-05-25T08:11:10.936Z,28.25
2018-05-25T08:13:42.243Z,29.44
2018-05-25T08:16:15.131Z,30.06
2018-05-25T08:18:45.741Z,29.68
2018-05-25T08:21:18.463Z,29.51
2018-05-25T08:23:52.690Z,29.12
2018-05-25T08:26:23.549Z,28.20
2018-05-25T08:28:53.480Z,28.74
2018-05-25T08:31:26.292Z,30.09
2018-05-25T08:33:59.128Z,29.66
2018-05-25T08:36:31.984Z,29.52
2018-05-25T08:39:03.372Z,29.47
2018-05-25T08:41:35.233Z,29.80
2018-05-25T08:44:09.529Z,29.85
2018-05-25T08:46:39.480Z,29.90
2018-05-25T08:49:14.723Z,29.48
2018-05-25T08:51:47.543Z,30.00
2018-05-25T08:54:19.623Z,31.56
2018-05-25T08:56:51.583Z,30.07
2018-05-25T08:59:25.774Z,30.67
2018-05-25T09:01:58.618Z,31.09
2018-05-25T09:04:30.124Z,28.53
2018-05-25T09:07:01.492Z,30.03
2018-05-25T09:09:31.384Z,30.67
2018-05-25T09:12:01.987Z,30.05
2018-05-25T09:14:35.207Z,31.10
2018-05-25T09:17:07.972Z,30.88
2018-05-25T09:19:37.881Z,31.61
2018-05-25T09:22:09.800Z,31.22
2018-05-25T09:24:41.123Z,31.05
2018-05-25T09:27:10.976Z,30.81
2018-05-25T09:29:42.109Z,31.11
2018-05-25T09:32:15.554Z,32.05
2018-05-25T09:34:46.087Z,31.09
2018-05-25T09:37:19.205Z,31.07
2018-05-25T09:39:49.748Z,30.15
2018-05-25T09:42:22.480Z,30.55
2018-05-25T09:44:55.777Z,30.45
2018-05-25T09:47:26.530Z,30.62
2018-05-25T09:50:00.361Z,31.20
2018-05-25T09:52:31.527Z,31.60
2018-05-25T09:55:03.641Z,31.17
2018-05-25T09:57:34.917Z,30.45
2018-05-25T10:00:09.234Z,30.37
2018-05-25T10:02:40.345Z,28.62
2018-05-25T10:05:12.145Z,31.37
2018-05-25T10:07:43.977Z,31.69
2018-05-25T10:10:16.723Z,31.33
2018-05-25T10:12:49.571Z,28.51
2018-05-25T10:15:23.873Z,29.34
2018-05-25T10:17:56.816Z,30.63
2018-05-25T10:20:28.403Z,30.31
2018-05-25T10:22:58.269Z,30.29
2018-05-25T10:25:31.925Z,30.78
2018-05-25T10:28:01.821Z,30.26
2018-05-25T10:30:31.158Z,30.10
2018-05-25T10:33:05.352Z,30.80
2018-05-25T10:35:36.648Z,30.86
2018-05-25T10:38:11.001Z,29.68
2018-05-25T10:40:42.392Z,29.72
2018-05-25T10:43:16.689Z,30.67
2018-05-25T10:45:51.191Z,30.41
2018-05-25T10:48:22.659Z,30.21
2018-05-25T10:50:52.539Z,28.75
2018-05-25T10:53:25.510Z,29.32
2018-05-25T10:55:56.998Z,28.26
2018-05-25T10:58:28.416Z,29.77
2018-05-25T11:01:01.197Z,30.34
2018-05-25T11:03:32.348Z,30.49
2018-05-25T11:06:02.220Z,30.08
2018-05-25T11:08:33.559Z,28.47
2018-05-25T11:11:05.267Z,29.17
2018-05-25T11:13:39.514Z,29.56
2018-05-25T11:16:10.913Z,28.53
2018-05-25T11:18:42.279Z,29.39
2018-05-25T11:21:14.396Z,29.70
2018-05-25T11:23:45.974Z,29.78
2018-05-25T11:26:18.785Z,29.61
2018-05-25T11:28:49.372Z,28.15
2018-05-25T11:31:20.403Z,27.86
2018-05-25T11:33:51.768Z,28.29
2018-05-25T11:36:24.870Z,29.57
2018-05-25T11:38:56.760Z,30.50
2018-05-25T11:41:28.122Z,30.71
2018-05-25T11:44:00.450Z,30.94
2018-05-25T11:46:31.996Z,30.70
2018-05-25T11:49:01.600Z,30.04
2018-05-25T11:51:33.054Z,30.19
2018-05-25T11:54:04.554Z,29.79
2018-05-25T11:56:37.507Z,29.13
2018-05-25T11:59:12.122Z,29.38
2018-05-25T12:01:43.996Z,29.73
2018-05-25T12:04:14.584Z,29.27
2018-05-25T12:06:46.868Z,29.66
2018-05-25T12:09:17.277Z,29.71
2018-05-25T12:11:50.091Z,29.12
2018-05-25T12:14:20.460Z,29.61
2018-05-25T12:16:50.001Z,29.63
2018-05-25T12:19:22.860Z,29.69
2018-05-25T12:21:52.685Z,29.95
2018-05-25T12:24:23.287Z,29.68
2018-05-25T12:26:55.063Z,29.66
2018-05-25T12:29:30.336Z,29.28
2018-05-25T12:32:01.689Z,29.27
2018-05-25T12:34:33.485Z,29.22
2018-05-25T12:37:06.277Z,28.63
2018-05-25T12:39:38.995Z,28.87
2018-05-25T12:42:13.298Z,28.16
2018-05-25T12:45:15.733Z,29.71
2018-05-25T12:47:47.113Z,29.75
2018-05-25T12:50:19.121Z,29.41
2018-05-25T12:52:50.722Z,28.66
2018-05-25T12:55:24.076Z,29.14
2018-05-25T12:57:53.282Z,28.86
2018-05-25T13:00:26.238Z,28.77
2018-05-25T13:02:55.461Z,28.65
2018-05-25T13:05:26.852Z,28.62
2018-05-25T13:07:58.171Z,28.63
2018-05-25T13:10:32.733Z,28.31
2018-05-25T13:13:04.049Z,28.30
2018-05-25T13:15:37.779Z,28.68
2018-05-25T13:18:09.250Z,28.76
2018-05-25T13:20:41.323Z,28.86
2018-05-25T13:23:14.182Z,28.67
2018-05-25T13:25:46.156Z,28.72
2018-05-25T13:28:19.904Z,29.14
2018-05-25T13:30:54.580Z,28.86
2018-05-25T13:33:27.344Z,28.83
2018-05-25T13:35:58.773Z,29.03
2018-05-25T13:38:28.949Z,29.01
2018-05-25T13:41:01.789Z,29.05
2018-05-25T13:43:33.277Z,29.43
2018-05-25T13:46:07.543Z,28.87
2018-05-25T13:48:40.427Z,28.96
2018-05-25T13:51:13.281Z,29.02
2018-05-25T13:53:44.658Z,28.76
2018-05-25T13:56:17.405Z,28.75
2018-05-25T13:58:48.483Z,28.58
2018-05-25T14:01:21.319Z,28.76
2018-05-25T14:03:54.198Z,28.89
2018-05-25T14:06:27.207Z,28.20
2018-05-25T14:08:57.864Z,27.53
2018-05-25T14:11:30.870Z,28.36
2018-05-25T14:14:05.483Z,28.96
2018-05-25T14:16:37.598Z,28.34
2018-05-25T14:19:08.971Z,28.98
2018-05-25T14:21:39.378Z,29.09
2018-05-25T14:24:13.986Z,28.88
2018-05-25T14:26:45.663Z,29.01
2018-05-25T14:29:17.745Z,28.06
2018-05-25T14:31:49.676Z,27.83
2018-05-25T14:34:23.248Z,27.87
2018-05-25T14:36:56.042Z,28.30
2018-05-25T14:39:27.930Z,28.11
2018-05-25T14:42:00.128Z,28.15
2018-05-25T14:44:31.552Z,27.81
2018-05-25T14:47:04.477Z,28.36
2018-05-25T14:49:38.513Z,28.44
2018-05-25T14:52:10.856Z,28.23
2018-05-25T14:54:43.797Z,28.32
2018-05-25T14:57:17.006Z,28.28
2018-05-25T14:59:50.318Z,28.57
2018-05-25T15:02:20.224Z,28.66
2018-05-25T15:04:51.615Z,28.74
2018-05-25T15:07:22.998Z,28.59
2018-05-25T15:09:54.399Z,28.68
2018-05-25T15:12:25.719Z,28.29
2018-05-25T15:14:57.452Z,28.41
2018-05-25T15:17:29.490Z,28.45
2018-05-25T15:20:00.846Z,28.46
2018-05-25T15:22:31.416Z,27.91
2018-05-25T15:25:04.603Z,27.92
2018-05-25T15:27:35.928Z,28.08
2018-05-25T15:30:09.199Z,28.14
2018-05-25T15:32:42.210Z,27.99
2018-05-25T15:35:15.233Z,27.91
2018-05-25T15:37:48.034Z,27.88
2018-05-25T15:40:21.150Z,27.70
2018-05-25T15:42:53.920Z,27.68
2018-05-25T15:45:23.817Z,26.86
2018-05-25T15:47:56.675Z,27.29
2018-05-25T15:50:28.275Z,27.39
2018-05-25T15:53:01.078Z,27.31
2018-05-25T15:55:32.537Z,27.42
2018-05-25T15:58:03.980Z,27.37
2018-05-25T16:00:35.390Z,27.44
2018-05-25T16:03:05.809Z,27.10
2018-05-25T16:05:37.313Z,27.33
2018-05-25T16:08:09.475Z,27.44
2018-05-25T16:10:44.103Z,27.54
2018-05-25T16:13:18.512Z,27.69
2018-05-25T16:15:52.051Z,27.65
2018-05-25T16:18:23.471Z,27.25
2018-05-25T16:20:54.808Z,27.14
2018-05-25T16:23:26.186Z,26.95
2018-05-25T16:25:57.486Z,26.42
2018-05-25T16:28:28.913Z,26.66
2018-05-25T16:31:00.840Z,26.81
2018-05-25T16:33:31.397Z,26.71
2018-05-25T16:36:03.685Z,26.74
2018-05-25T16:38:35.076Z,26.69
2018-05-25T16:41:07.993Z,26.73
2018-05-25T16:43:42.460Z,26.81
2018-05-25T16:46:13.824Z,26.68
2018-05-25T16:48:44.207Z,26.59
2018-05-25T16:51:15.980Z,26.62
2018-05-25T16:53:48.819Z,26.71
2018-05-25T16:56:21.943Z,26.78
2018-05-25T16:58:54.901Z,26.76
2018-05-25T17:01:26.783Z,26.76
2018-05-25T17:03:58.210Z,26.75
2018-05-25T17:06:29.639Z,26.72
2018-05-25T17:09:01.074Z,26.63
2018-05-25T17:11:34.245Z,26.59
2018-05-25T17:14:07.033Z,26.47
2018-05-25T17:16:38.416Z,26.37
2018-05-25T17:19:08.650Z,26.26
2018-05-25T17:21:43.058Z,26.16
2018-05-25T17:24:14.487Z,26.30
2018-05-25T17:26:47.344Z,26.25
2018-05-25T17:29:18.853Z,26.08
2018-05-25T17:31:51.839Z,26.16
2018-05-25T17:34:24.277Z,26.21
2018-05-25T17:36:55.657Z,26.12
2018-05-25T17:39:28.197Z,26.19
2018-05-25T17:41:58.886Z,26.21
2018-05-25T17:44:30.710Z,26.06
2018-05-25T17:47:02.081Z,26.09
2018-05-25T17:49:33.809Z,26.21
2018-05-25T17:52:05.128Z,26.14
2018-05-25T17:54:37.738Z,26.12
2018-05-25T17:57:10.560Z,26.11
2018-05-25T17:59:45.041Z,26.06
2018-05-25T18:02:17.902Z,26.05
2018-05-25T18:04:50.186Z,25.90
2018-05-25T18:07:23.469Z,25.78
2018-05-25T18:09:56.499Z,25.60
2018-05-25T18:12:30.841Z,25.46
2018-05-25T18:15:03.186Z,25.38
2018-05-25T18:17:34.519Z,25.34
2018-05-25T18:20:04.396Z,25.24
2018-05-25T18:22:33.590Z,25.21
2018-05-25T18:25:06.393Z,25.25
2018-05-25T18:27:37.495Z,25.18
2018-05-25T18:30:10.729Z,25.22
2018-05-25T18:32:43.555Z,25.21
2018-05-25T18:35:18.906Z,25.30
2018-05-25T18:37:50.311Z,25.31
2018-05-25T18:40:22.243Z,25.29
2018-05-25T18:42:54.486Z,25.34
2018-05-25T18:45:27.217Z,25.24
2018-05-25T18:47:58.685Z,25.23
2018-05-25T18:50:30.213Z,25.15
2018-05-25T18:53:02.946Z,25.11
2018-05-25T18:55:33.573Z,25.00
2018-05-25T18:58:07.956Z,24.89
2018-05-25T19:00:40.738Z,24.84
2018-05-25T19:03:13.939Z,24.83
2018-05-25T19:05:43.927Z,24.73
2018-05-25T19:08:16.019Z,24.54
2018-05-25T19:10:47.813Z,24.57
2018-05-25T19:13:17.947Z,24.49
2018-05-25T19:15:50.896Z,24.41
2018-05-25T19:18:22.529Z,24.34
2018-05-25T19:20:53.184Z,24.29
2018-05-25T19:23:26.762Z,24.24
2018-05-25T19:25:58.461Z,24.16
2018-05-25T19:28:32.903Z,24.08
2018-05-25T19:31:04.083Z,24.03
2018-05-25T19:33:35.354Z,23.91
2018-05-25T19:36:08.361Z,23.83
2018-05-25T19:38:40.128Z,23.71
2018-05-25T19:41:13.004Z,23.53
2018-05-25T19:43:44.557Z,23.31
2018-05-25T19:46:18.920Z,23.25
2018-05-25T19:48:50.489Z,23.24
2018-05-25T19:51:23.270Z,23.09
2018-05-25T19:53:56.346Z,23.11
2018-05-25T19:56:29.174Z,22.99
2018-05-25T19:59:01.226Z,22.92
2018-05-25T20:01:34.296Z,22.94
2018-05-25T20:04:07.040Z,22.97
2018-05-25T20:06:37.075Z,22.89
2018-05-25T20:09:10.523Z,22.85
2018-05-25T20:11:43.354Z,22.82
2018-05-25T20:14:14.928Z,22.83
2018-05-25T20:16:46.324Z,22.83
2018-05-25T20:19:16.768Z,22.73
2018-05-25T20:21:47.227Z,22.58
2018-05-25T20:24:17.539Z,22.49
2018-05-25T20:26:49.014Z,22.44
2018-05-25T20:29:20.935Z,22.37
2018-05-25T20:31:50.932Z,22.37
2018-05-25T20:34:22.950Z,22.30
2018-05-25T20:36:52.873Z,22.25
2018-05-25T20:39:25.045Z,22.04
2018-05-25T20:41:56.864Z,21.91
2018-05-25T20:44:27.465Z,21.82
2018-05-25T20:47:00.075Z,21.88
2018-05-25T20:49:31.581Z,21.87
2018-05-25T20:52:04.552Z,21.88
2018-05-25T20:54:34.405Z,21.88
2018-05-25T20:57:05.338Z,21.74
2018-05-25T20:59:38.306Z,21.52
2018-05-25T21:02:10.157Z,21.47
2018-05-25T21:04:41.745Z,21.38
2018-05-25T21:07:11.989Z,21.43
2018-05-25T21:09:43.444Z,21.14
2018-05-25T21:12:14.206Z,21.14
2018-05-25T21:14:46.081Z,21.19
2018-05-25T21:17:20.548Z,21.04
2018-05-25T21:19:55.225Z,21.13
2018-05-25T21:22:28.103Z,21.24
2018-05-25T21:25:00.621Z,21.24
2018-05-25T21:27:31.970Z,21.31
2018-05-25T21:30:02.658Z,21.32
2018-05-25T21:32:35.736Z,21.33
2018-05-25T21:35:08.634Z,21.29
2018-05-25T21:37:42.167Z,21.31
2018-05-25T21:40:13.855Z,21.29
2018-05-25T21:42:46.206Z,21.40
2018-05-25T21:45:17.915Z,21.31
2018-05-25T21:47:47.415Z,21.29
2018-05-25T21:50:20.319Z,21.24
2018-05-25T21:52:51.721Z,21.26
2018-05-25T21:55:26.122Z,21.21
2018-05-25T21:58:00.047Z,21.29
2018-05-25T22:00:33.149Z,21.26
2018-05-25T22:03:04.536Z,21.27
2018-05-25T22:05:37.759Z,21.29
2018-05-25T22:08:10.803Z,21.27
2018-05-25T22:10:42.007Z,21.26
2018-05-25T22:13:13.383Z,21.25
2018-05-25T22:15:46.424Z,21.22
2018-05-25T22:18:17.127Z,21.19
2018-05-25T22:20:50.186Z,21.18
2018-05-25T22:23:20.046Z,21.18
2018-05-25T22:25:52.201Z,21.13
2018-05-25T22:28:25.102Z,21.09
2018-05-25T22:30:57.956Z,21.03
2018-05-25T22:33:29.375Z,21.00
2018-05-25T22:35:59.205Z,20.99
2018-05-25T22:38:33.515Z,21.00
2018-05-25T22:41:07.894Z,20.94
2018-05-25T22:44:15.487Z,20.93
2018-05-25T22:47:22.752Z,20.85
2018-05-25T22:50:30.235Z,20.68
2018-05-25T22:53:16.507Z,20.56
2018-05-25T22:55:49.295Z,20.46
2018-05-25T22:58:20.954Z,20.46
2018-05-25T23:00:52.374Z,20.52
2018-05-25T23:03:23.423Z,20.52
2018-05-25T23:05:55.731Z,20.49
2018-05-25T23:08:29.338Z,20.42
2018-05-25T23:11:02.147Z,20.47
2018-05-25T23:13:33.516Z,20.46
2018-05-25T23:16:05.884Z,20.47
2018-05-25T23:18:37.286Z,20.42
2018-05-25T23:21:08.824Z,20.38
2018-05-25T23:23:40.053Z,20.38
2018-05-25T23:26:13.609Z,20.31
2018-05-25T23:28:46.422Z,20.31
2018-05-25T23:31:15.643Z,20.29
2018-05-25T23:33:48.475Z,20.26
2018-05-25T23:36:19.821Z,20.21
2018-05-25T23:38:52.754Z,20.18
2018-05-25T23:41:24.116Z,20.20
2018-05-25T23:43:55.432Z,20.17
2018-05-25T23:46:28.356Z,20.07
2018-05-25T23:49:01.279Z,20.06
2018-05-25T23:51:34.437Z,19.99
2018-05-25T23:54:07.190Z,19.92
2018-05-25T23:56:41.543Z,19.90
2018-05-25T23:59:12.949Z,19.86
